createdAt,value
2017-05-13T00:01:18.258Z,80.50
2017-05-13T00:03:47.310Z,80.80
2017-05-13T00:06:16.250Z,80.60
2017-05-13T00:08:45.648Z,81.30
2017-05-13T00:11:14.605Z,80.50
2017-05-13T00:13:43.558Z,81.20
2017-05-13T00:16:12.763Z,82.30
2017-05-13T00:18:41.700Z,81.90
2017-05-13T00:21:10.985Z,81.40
2017-05-13T00:23:39.926Z,81.70
2017-05-13T00:26:08.878Z,80.40
2017-05-13T00:28:37.882Z,81.80
2017-05-13T00:31:06.865Z,81.60
2017-05-13T00:33:36.170Z,81.90
2017-05-13T00:36:05.176Z,81.00
2017-05-13T00:38:34.149Z,81.30
2017-05-13T00:41:03.868Z,81.00
2017-05-13T00:43:32.827Z,80.90
2017-05-13T00:46:02.127Z,80.50
2017-05-13T00:48:31.093Z,81.00
2017-05-13T00:51:00.050Z,81.20
2017-05-13T00:53:28.999Z,80.40
2017-05-13T00:55:58.397Z,81.50
2017-05-13T00:58:27.702Z,79.30
2017-05-13T01:00:56.646Z,80.10
2017-05-13T01:03:25.635Z,78.80
2017-05-13T01:05:54.589Z,80.80
2017-05-13T01:08:24.291Z,80.60
2017-05-13T01:10:53.584Z,80.00
2017-05-13T01:13:22.541Z,80.00
2017-05-13T01:15:51.484Z,78.30
2017-05-13T01:18:21.202Z,78.50
2017-05-13T01:20:50.898Z,77.80
2017-05-13T01:23:20.209Z,78.70
2017-05-13T01:25:49.166Z,79.20
2017-05-13T01:28:18.150Z,80.00
2017-05-13T01:30:47.176Z,80.80
2017-05-13T01:33:16.889Z,79.50
2017-05-13T01:35:46.211Z,81.00
2017-05-13T01:38:15.194Z,82.20
2017-05-13T01:40:44.155Z,83.10
2017-05-13T01:43:13.870Z,82.70
2017-05-13T01:45:42.830Z,83.10
2017-05-13T01:48:12.162Z,83.10
2017-05-13T01:50:41.870Z,83.10
2017-05-13T01:53:10.875Z,81.80
2017-05-13T01:55:40.629Z,81.50
2017-05-13T01:58:09.596Z,81.80
2017-05-13T02:00:38.575Z,80.70
2017-05-13T02:03:07.508Z,81.80
2017-05-13T02:05:36.831Z,81.80
2017-05-13T02:08:05.818Z,80.60
2017-05-13T02:10:34.757Z,80.80
2017-05-13T02:13:03.732Z,82.00
2017-05-13T02:15:32.744Z,81.00
2017-05-13T02:18:02.924Z,81.00
2017-05-13T02:20:31.882Z,81.20
2017-05-13T02:23:00.843Z,81.40
2017-05-13T02:25:29.926Z,81.20
2017-05-13T02:27:58.874Z,80.20
2017-05-13T02:30:29.378Z,81.10
2017-05-13T02:32:58.387Z,80.20
2017-05-13T02:35:27.336Z,80.40
2017-05-13T02:37:56.290Z,80.20
2017-05-13T02:40:25.248Z,80.50
2017-05-13T02:42:56.030Z,80.90
2017-05-13T02:45:24.978Z,80.80
2017-05-13T02:47:53.924Z,80.10
2017-05-13T02:50:22.898Z,80.80
2017-05-13T02:52:51.842Z,79.50
2017-05-13T02:55:21.228Z,80.20
2017-05-13T02:57:50.221Z,80.10
2017-05-13T03:00:19.151Z,80.10
2017-05-13T03:02:48.103Z,80.20
2017-05-13T03:05:17.102Z,80.00
2017-05-13T03:07:46.411Z,80.50
2017-05-13T03:10:15.364Z,79.60
2017-05-13T03:12:45.073Z,79.50
2017-05-13T03:15:14.799Z,80.60
2017-05-13T03:17:43.763Z,80.80
2017-05-13T03:20:14.003Z,81.30
2017-05-13T03:22:42.965Z,80.50
2017-05-13T03:25:11.914Z,79.50
2017-05-13T03:27:40.882Z,79.50
2017-05-13T03:30:09.838Z,80.40
2017-05-13T03:32:39.144Z,80.00
2017-05-13T03:35:08.838Z,80.70
2017-05-13T03:37:37.795Z,81.90
2017-05-13T03:40:06.851Z,82.50
2017-05-13T03:42:36.555Z,80.60
2017-05-13T03:45:06.568Z,80.90
2017-05-13T03:47:35.566Z,82.10
2017-05-13T03:50:05.271Z,82.20
2017-05-13T03:52:34.966Z,82.00
2017-05-13T03:55:03.918Z,82.30
2017-05-13T03:57:33.227Z,82.10
2017-05-13T04:00:02.161Z,82.00
2017-05-13T04:02:31.847Z,81.30
2017-05-13T04:05:00.827Z,81.30
2017-05-13T04:07:29.809Z,81.30
2017-05-13T04:09:59.136Z,80.90
2017-05-13T04:12:28.080Z,80.30
2017-05-13T04:14:57.159Z,81.50
2017-05-13T04:17:26.122Z,81.70
2017-05-13T04:19:55.813Z,81.50
2017-05-13T04:22:25.137Z,81.00
2017-05-13T04:24:54.897Z,80.20
2017-05-13T04:27:23.839Z,80.60
2017-05-13T04:29:53.534Z,79.70
2017-05-13T04:32:22.494Z,79.50
2017-05-13T04:34:51.836Z,79.60
2017-05-13T04:37:20.801Z,79.40
2017-05-13T04:39:50.377Z,79.80
2017-05-13T04:42:19.332Z,79.70
2017-05-13T04:44:49.029Z,79.70
2017-05-13T04:47:18.317Z,79.10
2017-05-13T04:49:47.300Z,79.80
2017-05-13T04:52:16.243Z,79.90
2017-05-13T04:54:45.287Z,79.90
2017-05-13T04:57:14.240Z,78.10
2017-05-13T04:59:43.572Z,78.20
2017-05-13T05:02:12.518Z,79.10
2017-05-13T05:04:41.463Z,79.80
2017-05-13T05:07:11.293Z,80.00
2017-05-13T05:09:40.987Z,80.80
2017-05-13T05:12:09.966Z,81.10
2017-05-13T05:14:38.910Z,81.10
2017-05-13T05:17:07.987Z,80.60
2017-05-13T05:19:37.721Z,80.30
2017-05-13T05:22:06.665Z,79.90
2017-05-13T05:24:36.063Z,79.90
2017-05-13T05:27:05.031Z,79.30
2017-05-13T05:29:33.985Z,80.10
2017-05-13T05:32:02.962Z,79.40
2017-05-13T05:34:31.909Z,79.30
2017-05-13T05:37:01.237Z,78.30
2017-05-13T05:39:30.177Z,78.50
2017-05-13T05:41:59.133Z,78.50
2017-05-13T05:44:28.092Z,79.90
2017-05-13T05:46:57.054Z,80.30
2017-05-13T05:49:26.383Z,79.20
2017-05-13T05:51:55.453Z,78.60
2017-05-13T05:54:24.443Z,78.50
2017-05-13T05:56:53.434Z,76.40
2017-05-13T05:59:22.371Z,76.20
2017-05-13T06:01:51.770Z,76.50
2017-05-13T06:04:20.733Z,76.30
2017-05-13T06:06:49.697Z,77.40
2017-05-13T06:09:19.472Z,76.80
2017-05-13T06:11:49.181Z,77.20
2017-05-13T06:14:18.439Z,77.70
2017-05-13T06:16:47.997Z,77.60
2017-05-13T06:19:16.951Z,78.40
2017-05-13T06:21:45.918Z,77.90
2017-05-13T06:24:14.958Z,77.70
2017-05-13T06:26:44.262Z,77.00
2017-05-13T06:29:13.281Z,76.90
2017-05-13T06:31:42.246Z,77.50
2017-05-13T06:34:11.259Z,75.60
2017-05-13T06:36:40.261Z,75.30
2017-05-13T06:39:09.571Z,73.50
2017-05-13T06:41:38.538Z,74.50
2017-05-13T06:44:07.495Z,74.60
2017-05-13T06:46:36.458Z,73.70
2017-05-13T06:49:05.473Z,73.80
2017-05-13T06:51:34.875Z,74.40
2017-05-13T06:54:03.856Z,73.00
2017-05-13T06:56:32.810Z,70.40
2017-05-13T06:59:01.794Z,71.00
2017-05-13T07:01:30.782Z,70.10
2017-05-13T07:04:00.127Z,70.30
2017-05-13T07:06:29.082Z,69.80
2017-05-13T07:08:58.058Z,69.70
2017-05-13T07:11:27.027Z,68.90
2017-05-13T07:13:55.974Z,69.10
2017-05-13T07:16:25.307Z,68.50
2017-05-13T07:18:54.281Z,68.60
2017-05-13T07:21:23.369Z,66.40
2017-05-13T07:23:52.359Z,68.00
2017-05-13T07:26:21.811Z,66.90
2017-05-13T07:28:51.912Z,66.80
2017-05-13T07:31:20.868Z,66.40
2017-05-13T07:33:49.851Z,65.90
2017-05-13T07:36:18.864Z,66.90
2017-05-13T07:38:47.828Z,66.90
2017-05-13T07:41:17.308Z,67.40
2017-05-13T07:43:47.840Z,67.10
2017-05-13T07:46:16.819Z,65.40
2017-05-13T07:48:47.367Z,65.80
2017-05-13T07:51:16.365Z,65.10
2017-05-13T07:53:45.752Z,65.80
2017-05-13T07:56:14.741Z,66.40
2017-05-13T07:58:43.761Z,66.00
2017-05-13T08:01:12.851Z,66.40
2017-05-13T08:03:41.869Z,65.00
2017-05-13T08:06:10.874Z,65.60
2017-05-13T08:08:39.821Z,65.20
2017-05-13T08:11:09.108Z,64.20
2017-05-13T08:13:38.095Z,65.80
2017-05-13T08:16:07.156Z,66.20
2017-05-13T08:18:36.899Z,65.30
2017-05-13T08:21:05.939Z,65.30
2017-05-13T08:23:35.263Z,65.50
2017-05-13T08:26:04.266Z,65.10
2017-05-13T08:28:33.266Z,64.50
2017-05-13T08:31:03.219Z,64.20
2017-05-13T08:33:32.199Z,65.10
2017-05-13T08:36:01.167Z,65.70
2017-05-13T08:38:30.883Z,65.50
2017-05-13T08:41:00.591Z,64.80
2017-05-13T08:43:29.982Z,64.70
2017-05-13T08:45:59.075Z,65.00
2017-05-13T08:48:28.052Z,65.00
2017-05-13T08:50:57.109Z,64.20
2017-05-13T08:53:26.104Z,65.30
2017-05-13T08:55:55.447Z,65.80
2017-05-13T08:58:25.169Z,65.50
2017-05-13T09:00:54.142Z,65.70
2017-05-13T09:03:23.165Z,64.60
2017-05-13T09:05:52.174Z,65.50
2017-05-13T09:08:21.463Z,65.10
2017-05-13T09:10:50.423Z,65.30
2017-05-13T09:13:19.978Z,65.70
2017-05-13T09:15:49.019Z,65.50
2017-05-13T09:18:18.707Z,66.00
2017-05-13T09:20:48.257Z,65.30
2017-05-13T09:23:17.236Z,65.30
2017-05-13T09:25:46.938Z,65.30
2017-05-13T09:28:16.674Z,65.30
2017-05-13T09:30:45.628Z,65.60
2017-05-13T09:33:15.044Z,65.30
2017-05-13T09:35:44.893Z,67.20
2017-05-13T09:38:13.882Z,66.80
2017-05-13T09:40:42.839Z,66.40
2017-05-13T09:43:12.995Z,65.70
2017-05-13T09:45:42.401Z,66.70
2017-05-13T09:48:11.362Z,66.10
2017-05-13T09:50:40.303Z,68.10
2017-05-13T09:53:09.400Z,67.40
2017-05-13T09:55:38.491Z,65.00
2017-05-13T09:58:07.958Z,66.00
2017-05-13T10:00:37.164Z,66.50
2017-05-13T10:03:06.164Z,65.90
2017-05-13T10:05:35.111Z,67.40
2017-05-13T10:08:04.808Z,64.80
2017-05-13T10:10:34.140Z,63.50
2017-05-13T10:13:03.104Z,61.90
2017-05-13T10:15:32.082Z,60.70
2017-05-13T10:18:01.080Z,62.00
2017-05-13T10:20:30.029Z,62.40
2017-05-13T10:22:59.405Z,62.40
2017-05-13T10:25:28.444Z,60.00
2017-05-13T10:27:57.407Z,58.60
2017-05-13T10:30:26.428Z,57.00
2017-05-13T10:32:55.430Z,59.10
2017-05-13T10:35:24.752Z,59.10
2017-05-13T10:37:53.733Z,57.50
2017-05-13T10:40:22.695Z,57.70
2017-05-13T10:42:51.716Z,56.50
2017-05-13T10:45:20.900Z,56.80
2017-05-13T10:47:50.198Z,58.20
2017-05-13T10:50:19.152Z,57.50
2017-05-13T10:52:48.109Z,56.50
2017-05-13T10:55:17.817Z,56.60
2017-05-13T10:57:47.565Z,56.50
2017-05-13T11:00:17.030Z,56.90
2017-05-13T11:02:46.762Z,55.70
2017-05-13T11:05:15.713Z,56.20
2017-05-13T11:07:44.734Z,54.50
2017-05-13T11:10:14.459Z,56.20
2017-05-13T11:12:43.718Z,57.60
2017-05-13T11:15:12.726Z,54.60
2017-05-13T11:17:42.454Z,55.80
2017-05-13T11:20:11.556Z,53.90
2017-05-13T11:22:40.545Z,53.90
2017-05-13T11:25:09.886Z,52.80
2017-05-13T11:27:38.833Z,51.40
2017-05-13T11:30:07.806Z,50.80
2017-05-13T11:32:37.579Z,49.90
2017-05-13T11:35:06.528Z,50.30
2017-05-13T11:37:35.893Z,53.10
2017-05-13T11:40:04.879Z,50.90
2017-05-13T11:42:33.858Z,50.20
2017-05-13T11:45:02.847Z,52.70
2017-05-13T11:47:31.813Z,50.60
2017-05-13T11:50:01.182Z,51.90
2017-05-13T11:52:30.856Z,49.80
2017-05-13T11:54:59.821Z,48.00
2017-05-13T11:57:28.787Z,49.20
2017-05-13T11:59:57.775Z,49.70
2017-05-13T12:02:27.172Z,49.30
2017-05-13T12:04:56.150Z,48.80
2017-05-13T12:07:25.848Z,47.30
2017-05-13T12:09:54.877Z,47.80
2017-05-13T12:12:23.843Z,46.50
2017-05-13T12:14:53.908Z,48.40
2017-05-13T12:17:22.927Z,48.70
2017-05-13T12:19:51.879Z,49.30
2017-05-13T12:22:20.855Z,51.80
2017-05-13T12:24:49.823Z,53.10
2017-05-13T12:27:19.219Z,53.60
2017-05-13T12:29:48.167Z,54.40
2017-05-13T12:32:17.152Z,55.50
2017-05-13T12:34:46.137Z,56.00
2017-05-13T12:37:15.091Z,55.80
2017-05-13T12:39:44.393Z,56.50
2017-05-13T12:42:14.099Z,57.70
2017-05-13T12:44:43.101Z,57.70
2017-05-13T12:47:12.888Z,58.80
2017-05-13T12:49:42.847Z,58.80
2017-05-13T12:52:12.241Z,59.40
2017-05-13T12:54:41.231Z,59.30
2017-05-13T12:57:10.192Z,59.20
2017-05-13T12:59:39.183Z,59.10
2017-05-13T13:02:08.260Z,59.30
2017-05-13T13:04:37.220Z,60.00
2017-05-13T13:07:06.184Z,61.20
2017-05-13T13:09:35.910Z,60.90
2017-05-13T13:12:04.874Z,61.00
2017-05-13T13:14:33.856Z,62.40
2017-05-13T13:17:02.848Z,61.90
2017-05-13T13:19:31.791Z,59.20
2017-05-13T13:22:00.846Z,61.40
2017-05-13T13:24:30.847Z,60.10
2017-05-13T13:26:59.924Z,61.80
2017-05-13T13:29:28.900Z,62.40
2017-05-13T13:31:57.860Z,63.30
2017-05-13T13:34:26.833Z,62.50
2017-05-13T13:36:56.534Z,65.20
2017-05-13T13:39:26.247Z,65.50
2017-05-13T13:41:55.982Z,65.70
2017-05-13T13:44:24.950Z,66.00
2017-05-13T13:46:54.644Z,67.50
2017-05-13T13:49:23.619Z,67.40
2017-05-13T13:51:52.586Z,68.00
2017-05-13T13:54:21.550Z,68.50
2017-05-13T13:56:50.486Z,68.30
2017-05-13T13:59:19.568Z,68.30
2017-05-13T14:01:48.682Z,67.20
2017-05-13T14:04:17.678Z,67.90
2017-05-13T14:06:46.684Z,68.50
2017-05-13T14:09:16.442Z,68.30
2017-05-13T14:11:45.472Z,70.10
2017-05-13T14:14:14.466Z,70.80
2017-05-13T14:16:43.416Z,71.70
2017-05-13T14:19:12.374Z,72.10
2017-05-13T14:21:41.597Z,71.80
2017-05-13T14:24:10.566Z,72.30
2017-05-13T14:26:40.342Z,72.50
2017-05-13T14:29:09.356Z,73.40
2017-05-13T14:31:38.328Z,73.10
2017-05-13T14:34:07.322Z,73.70
2017-05-13T14:36:36.321Z,73.50
2017-05-13T14:39:05.319Z,73.00
2017-05-13T14:41:34.256Z,72.30
2017-05-13T14:44:03.350Z,73.60
2017-05-13T14:46:32.324Z,73.70
2017-05-13T14:49:01.308Z,73.20
2017-05-13T14:51:31.398Z,71.80
2017-05-13T14:54:00.395Z,70.20
2017-05-13T14:56:29.381Z,70.90
2017-05-13T14:58:58.383Z,71.10
2017-05-13T15:01:27.337Z,70.60
2017-05-13T15:03:56.289Z,71.20
2017-05-13T15:06:25.337Z,70.80
2017-05-13T15:08:54.322Z,71.80
2017-05-13T15:11:23.291Z,69.90
2017-05-13T15:13:52.322Z,69.30
2017-05-13T15:16:21.304Z,67.90
2017-05-13T15:18:50.729Z,68.70
2017-05-13T15:21:19.745Z,68.70
2017-05-13T15:23:49.435Z,67.70
2017-05-13T15:26:18.476Z,66.90
2017-05-13T15:28:47.425Z,68.30
2017-05-13T15:31:17.566Z,66.90
2017-05-13T15:33:46.569Z,63.80
2017-05-13T15:36:15.606Z,62.40
2017-05-13T15:38:44.556Z,57.80
2017-05-13T15:41:13.519Z,56.70
2017-05-13T15:43:43.594Z,56.40
2017-05-13T15:46:12.541Z,55.90
2017-05-13T15:48:41.502Z,55.90
2017-05-13T15:51:10.454Z,56.60
2017-05-13T15:53:39.394Z,60.00
2017-05-13T15:56:09.556Z,60.60
2017-05-13T15:58:38.538Z,58.10
2017-05-13T16:01:07.513Z,59.90
2017-05-13T16:03:36.478Z,58.80
2017-05-13T16:06:05.446Z,59.80
2017-05-13T16:08:34.842Z,58.50
2017-05-13T16:11:03.875Z,57.80
2017-05-13T16:13:32.875Z,58.30
2017-05-13T16:16:02.587Z,59.40
2017-05-13T16:18:32.287Z,61.00
2017-05-13T16:21:02.256Z,60.30
2017-05-13T16:23:31.855Z,60.40
2017-05-13T16:26:00.827Z,60.90
2017-05-13T16:28:29.782Z,62.00
2017-05-13T16:30:58.742Z,60.20
2017-05-13T16:33:28.079Z,62.40
2017-05-13T16:35:57.819Z,62.00
2017-05-13T16:38:26.760Z,61.80
2017-05-13T16:40:55.723Z,62.80
2017-05-13T16:43:25.732Z,63.00
2017-05-13T16:45:55.072Z,62.30
2017-05-13T16:48:24.033Z,62.80
2017-05-13T16:50:53.051Z,62.60
2017-05-13T16:53:22.005Z,61.70
2017-05-13T16:55:50.944Z,60.40
2017-05-13T16:58:20.372Z,61.60
2017-05-13T17:00:49.339Z,63.30
2017-05-13T17:03:18.310Z,63.20
2017-05-13T17:05:47.332Z,62.60
2017-05-13T17:08:17.042Z,61.20
2017-05-13T17:10:47.222Z,60.80
2017-05-13T17:13:16.185Z,62.20
2017-05-13T17:15:45.199Z,60.30
2017-05-13T17:18:14.193Z,60.40
2017-05-13T17:20:43.143Z,60.50
2017-05-13T17:23:13.353Z,60.60
2017-05-13T17:25:43.688Z,60.60
2017-05-13T17:28:13.778Z,60.90
2017-05-13T17:30:43.229Z,60.90
2017-05-13T17:33:12.299Z,61.20
2017-05-13T17:35:42.044Z,61.60
2017-05-13T17:38:11.037Z,61.90
2017-05-13T17:40:40.451Z,62.20
2017-05-13T17:43:09.442Z,61.70
2017-05-13T17:45:38.401Z,62.70
2017-05-13T17:48:07.379Z,62.80
2017-05-13T17:50:37.327Z,62.40
2017-05-13T17:53:06.693Z,64.10
2017-05-13T17:55:36.438Z,64.40
2017-05-13T17:58:05.478Z,66.30
2017-05-13T18:00:34.455Z,66.10
2017-05-13T18:03:03.451Z,67.00
2017-05-13T18:05:32.452Z,67.00
2017-05-13T18:08:01.395Z,68.00
2017-05-13T18:10:30.665Z,68.20
2017-05-13T18:12:59.648Z,68.50
2017-05-13T18:15:29.421Z,67.00
2017-05-13T18:17:58.403Z,67.60
2017-05-13T18:20:27.357Z,64.70
2017-05-13T18:22:56.876Z,63.20
2017-05-13T18:25:25.855Z,63.30
2017-05-13T18:27:55.254Z,62.90
2017-05-13T18:30:24.288Z,61.20
2017-05-13T18:32:53.321Z,62.30
2017-05-13T18:35:23.419Z,60.80
2017-05-13T18:37:52.367Z,61.60
2017-05-13T18:40:21.318Z,61.10
2017-05-13T18:42:51.032Z,61.60
2017-05-13T18:45:20.739Z,61.30
2017-05-13T18:47:50.743Z,61.00
2017-05-13T18:50:19.709Z,61.40
2017-05-13T18:52:48.708Z,62.80
2017-05-13T18:55:17.680Z,62.90
2017-05-13T18:57:46.683Z,64.00
2017-05-13T19:00:16.113Z,63.30
2017-05-13T19:02:45.518Z,64.80
2017-05-13T19:05:15.028Z,64.70
2017-05-13T19:07:44.755Z,65.40
2017-05-13T19:10:13.712Z,65.30
2017-05-13T19:12:43.123Z,65.40
2017-05-13T19:15:12.059Z,67.00
2017-05-13T19:17:41.018Z,68.90
2017-05-13T19:20:10.833Z,69.80
2017-05-13T19:22:40.475Z,70.60
2017-05-13T19:25:09.841Z,70.40
2017-05-13T19:27:39.544Z,71.80
2017-05-13T19:30:09.636Z,72.80
2017-05-13T19:32:38.613Z,70.50
2017-05-13T19:35:07.584Z,71.90
2017-05-13T19:37:36.566Z,72.70
2017-05-13T19:40:05.543Z,72.00
2017-05-13T19:42:34.944Z,73.80
2017-05-13T19:45:03.928Z,74.10
2017-05-13T19:47:33.663Z,73.70
2017-05-13T19:50:02.683Z,75.00
2017-05-13T19:52:31.639Z,78.00
2017-05-13T19:55:01.156Z,78.70
2017-05-13T19:57:30.115Z,80.00
2017-05-13T19:59:59.835Z,80.90
2017-05-13T20:02:28.796Z,80.90
2017-05-13T20:04:57.864Z,80.00
2017-05-13T20:07:27.179Z,79.90
2017-05-13T20:09:56.153Z,79.10
2017-05-13T20:12:25.123Z,79.00
2017-05-13T20:14:54.063Z,80.30
2017-05-13T20:17:23.039Z,80.10
2017-05-13T20:19:52.372Z,80.60
2017-05-13T20:22:22.060Z,81.90
2017-05-13T20:24:50.996Z,83.00
2017-05-13T20:27:19.995Z,83.60
2017-05-13T20:29:49.056Z,83.90
2017-05-13T20:32:19.078Z,84.40
2017-05-13T20:34:48.892Z,84.60
2017-05-13T20:37:18.594Z,83.00
2017-05-13T20:39:48.309Z,83.60
2017-05-13T20:42:17.303Z,83.70
2017-05-13T20:44:46.681Z,83.70
2017-05-13T20:47:15.648Z,83.90
2017-05-13T20:49:44.595Z,84.00
2017-05-13T20:52:13.598Z,84.10
2017-05-13T20:54:42.554Z,84.00
2017-05-13T20:57:12.515Z,83.70
2017-05-13T20:59:41.562Z,83.50
2017-05-13T21:02:11.312Z,83.90
2017-05-13T21:04:40.277Z,83.80
2017-05-13T21:07:09.950Z,83.80
2017-05-13T21:09:39.267Z,84.20
2017-05-13T21:12:08.975Z,84.40
2017-05-13T21:14:38.683Z,84.80
2017-05-13T21:17:08.428Z,84.20
2017-05-13T21:19:37.386Z,83.00
2017-05-13T21:22:07.400Z,84.50
2017-05-13T21:24:36.360Z,83.40
2017-05-13T21:27:05.372Z,83.20
2017-05-13T21:29:34.350Z,83.30
2017-05-13T21:32:03.291Z,83.90
2017-05-13T21:34:32.710Z,83.10
2017-05-13T21:37:17.336Z,83.10
2017-05-13T21:39:47.368Z,82.70
2017-05-13T21:42:16.357Z,82.80
2017-05-13T21:44:45.329Z,83.70
2017-05-13T21:47:15.027Z,84.00
2017-05-13T21:49:44.021Z,83.50
2017-05-13T21:52:13.418Z,83.40
2017-05-13T21:54:42.384Z,83.60
2017-05-13T21:57:11.519Z,83.70
2017-05-13T21:59:41.360Z,84.10
2017-05-13T22:02:10.286Z,83.90
2017-05-13T22:04:39.630Z,83.10
2017-05-13T22:07:09.326Z,83.10
2017-05-13T22:09:39.574Z,83.90
2017-05-13T22:12:08.539Z,83.30
2017-05-13T22:14:37.494Z,83.10
2017-05-13T22:17:06.594Z,83.20
2017-05-13T22:19:35.583Z,82.80
2017-05-13T22:22:04.920Z,82.90
2017-05-13T22:24:33.927Z,82.50
2017-05-13T22:27:03.604Z,82.20
2017-05-13T22:29:32.563Z,82.70
2017-05-13T22:32:01.517Z,82.80
2017-05-13T22:34:31.498Z,82.80
2017-05-13T22:37:00.443Z,82.90
2017-05-13T22:39:29.414Z,82.60
2017-05-13T22:41:59.139Z,82.80
2017-05-13T22:44:28.105Z,83.30
2017-05-13T22:46:58.133Z,82.70
2017-05-13T22:49:27.838Z,82.80
2017-05-13T22:51:57.559Z,82.50
2017-05-13T22:54:26.530Z,82.70
2017-05-13T22:56:56.305Z,83.20
2017-05-13T22:59:25.644Z,83.50
2017-05-13T23:01:55.335Z,83.50
2017-05-13T23:04:24.324Z,83.60
2017-05-13T23:06:53.350Z,84.40
2017-05-13T23:09:23.052Z,85.00
2017-05-13T23:11:52.757Z,84.70
2017-05-13T23:14:22.453Z,84.70
2017-05-13T23:16:51.393Z,85.10
2017-05-13T23:19:20.350Z,85.10
2017-05-13T23:21:50.044Z,85.00
2017-05-13T23:24:19.210Z,84.90
2017-05-13T23:26:48.174Z,84.70
2017-05-13T23:29:17.148Z,84.70
2017-05-13T23:31:46.102Z,84.80
2017-05-13T23:34:15.180Z,85.20
2017-05-13T23:36:44.147Z,85.20
2017-05-13T23:39:13.117Z,85.50
2017-05-13T23:41:42.110Z,85.80
2017-05-13T23:44:11.095Z,85.90
2017-05-13T23:46:40.058Z,85.80
2017-05-13T23:49:08.989Z,86.00
2017-05-13T23:51:37.931Z,86.20
2017-05-13T23:54:06.876Z,86.10
2017-05-13T23:56:35.840Z,85.80
2017-05-13T23:59:05.514Z,85.50
